Time;durP1;ratioP1;P1;durP2;ratioP2;P2;SDS_P1;SDS_P2;PMS_P1;PMS_P2;Temp;Humidity;BMP_temperature;BMP_pressure;BME280_temperature;BME280_humidity;BME280_pressure;Samples;Min_cycle;Max_cycle;Signal;HPM_P1;HPM_P2
2023/06/09 00:01:35;;;;;;;17.77;10.07;;;;;;;;;;5025623;28;20419;-69
2023/06/09 00:04:06;;;;;;;15.60;9.32;;;;;;;;;;5025585;28;20045;-68
2023/06/09 00:06:33;;;;;;;18.90;9.63;;;;;;;;;;5028373;28;20095;-68
2023/06/09 00:08:58;;;;;;;15.65;9.45;;;;;;;;;;5031503;28;20041;-69
2023/06/09 00:11:25;;;;;;;14.43;10.13;;;;;;;;;;5026102;28;20037;-69
2023/06/09 00:13:51;;;;;;;15.65;10.60;;;;;;;;;;5025454;28;20033;-69
2023/06/09 00:16:16;;;;;;;14.25;10.55;;;;;;;;;;5023799;28;20029;-69
2023/06/09 00:18:43;;;;;;;14.73;9.93;;;;;;;;;;5025279;28;20573;-69
2023/06/09 00:21:09;;;;;;;16.17;9.98;;;;;;;;;;5024837;28;20423;-69
2023/06/09 00:23:34;;;;;;;16.80;9.90;;;;;;;;;;5025161;28;20038;-69
2023/06/09 00:26:00;;;;;;;18.55;9.90;;;;;;;;;;5025138;28;20080;-69
2023/06/09 00:28:25;;;;;;;18.45;9.65;;;;;;;;;;5025312;28;20021;-68
2023/06/09 00:30:50;;;;;;;16.83;9.80;;;;;;;;;;5024611;28;20041;-69
2023/06/09 00:33:16;;;;;;;15.70;9.80;;;;;;;;;;5024689;28;20044;-69
2023/06/09 00:35:41;;;;;;;17.58;10.18;;;;;;;;;;5024430;28;20064;-68
2023/06/09 00:38:06;;;;;;;13.57;9.50;;;;;;;;;;5017539;28;20099;-70
2023/06/09 00:40:32;;;;;;;17.10;9.95;;;;;;;;;;5020753;28;20084;-69
2023/06/09 00:42:57;;;;;;;15.65;9.82;;;;;;;;;;5022846;28;20049;-69
2023/06/09 00:45:23;;;;;;;19.92;10.52;;;;;;;;;;5024335;28;20321;-68
2023/06/09 00:47:48;;;;;;;17.27;9.98;;;;;;;;;;5024056;28;20454;-69
2023/06/09 00:50:16;;;;;;;17.08;10.68;;;;;;;;;;5024030;28;20080;-68
2023/06/09 00:52:42;;;;;;;14.90;10.05;;;;;;;;;;5022262;28;20049;-69
2023/06/09 00:55:09;;;;;;;18.02;10.10;;;;;;;;;;5025092;28;20021;-69
2023/06/09 00:57:35;;;;;;;17.85;9.85;;;;;;;;;;5023436;28;20041;-68
2023/06/09 01:00:05;;;;;;;17.25;9.57;;;;;;;;;;5022966;28;20582;-69
2023/06/09 01:02:30;;;;;;;15.38;10.18;;;;;;;;;;5023807;28;20049;-69
2023/06/09 01:04:56;;;;;;;15.85;10.10;;;;;;;;;;5022489;28;20025;-68
2023/06/09 01:07:45;;;;;;;18.83;9.68;;;;;;;;;;5024589;28;20013;-69
2023/06/09 01:10:23;;;;;;;15.15;10.30;;;;;;;;;;5013149;28;20069;-69
2023/06/09 01:13:16;;;;;;;16.25;10.27;;;;;;;;;;5021212;28;20542;-69
2023/06/09 01:15:49;;;;;;;14.32;9.93;;;;;;;;;;5024468;28;20051;-69
2023/06/09 01:18:17;;;;;;;15.65;10.82;;;;;;;;;;5023615;28;20450;-68
2023/06/09 01:20:58;;;;;;;17.30;10.35;;;;;;;;;;5020555;28;20044;-68
2023/06/09 01:23:33;;;;;;;17.77;10.85;;;;;;;;;;5023149;28;20079;-68
2023/06/09 01:26:00;;;;;;;16.90;10.60;;;;;;;;;;5024482;28;20082;-68
2023/06/09 01:28:27;;;;;;;15.00;10.70;;;;;;;;;;5024525;28;20028;-69
2023/06/09 01:30:55;;;;;;;18.30;10.27;;;;;;;;;;5024832;28;20052;-68
2023/06/09 01:33:24;;;;;;;20.27;11.73;;;;;;;;;;5028532;28;20514;-68
2023/06/09 01:35:51;;;;;;;14.60;10.60;;;;;;;;;;5030250;28;20096;-68
2023/06/09 01:38:19;;;;;;;16.95;11.02;;;;;;;;;;5005715;28;20037;-68
2023/06/09 01:40:45;;;;;;;18.55;11.15;;;;;;;;;;5020599;28;20153;-68
2023/06/09 01:43:11;;;;;;;16.20;11.30;;;;;;;;;;5023875;28;20701;-68
2023/06/09 01:45:37;;;;;;;17.38;10.68;;;;;;;;;;5023576;28;20048;-68
2023/06/09 01:48:14;;;;;;;18.67;11.25;;;;;;;;;;5024296;28;20136;-68
2023/06/09 01:51:04;;;;;;;19.65;11.75;;;;;;;;;;5027249;28;20037;-68
2023/06/09 01:53:37;;;;;;;17.13;11.60;;;;;;;;;;5017413;28;20068;-68
2023/06/09 01:56:21;;;;;;;18.02;11.90;;;;;;;;;;5027076;28;20033;-68
2023/06/09 01:58:51;;;;;;;17.98;11.75;;;;;;;;;;5015954;28;20507;-68
2023/06/09 02:01:18;;;;;;;18.30;11.13;;;;;;;;;;5027546;28;20060;-69
2023/06/09 02:03:45;;;;;;;19.35;12.20;;;;;;;;;;5027952;28;20053;-68
2023/06/09 02:06:12;;;;;;;17.67;11.93;;;;;;;;;;5027440;28;20046;-68
2023/06/09 02:08:38;;;;;;;21.08;12.02;;;;;;;;;;5027743;28;20101;-68
2023/06/09 02:11:04;;;;;;;18.60;12.15;;;;;;;;;;5025945;28;20033;-68
2023/06/09 02:13:29;;;;;;;21.58;12.52;;;;;;;;;;5027816;28;20017;-68
2023/06/09 02:15:55;;;;;;;18.98;11.80;;;;;;;;;;5026926;28;20036;-68
2023/06/09 02:18:21;;;;;;;17.70;12.55;;;;;;;;;;5027367;28;20037;-69
2023/06/09 02:20:47;;;;;;;18.48;12.52;;;;;;;;;;5026934;28;20182;-69
2023/06/09 02:23:17;;;;;;;18.95;12.57;;;;;;;;;;5027401;28;20118;-68
2023/06/09 02:25:43;;;;;;;18.85;12.70;;;;;;;;;;5027137;28;20048;-68
2023/06/09 02:28:08;;;;;;;32.30;12.98;;;;;;;;;;5027803;28;20144;-68
2023/06/09 02:30:34;;;;;;;17.15;12.68;;;;;;;;;;5025909;28;20042;-68
2023/06/09 02:33:00;;;;;;;18.73;12.90;;;;;;;;;;5022396;28;20124;-68
2023/06/09 02:35:26;;;;;;;17.67;12.77;;;;;;;;;;5025001;28;20030;-68
2023/06/09 02:37:54;;;;;;;20.17;12.88;;;;;;;;;;5027207;28;20025;-69
2023/06/09 02:40:20;;;;;;;19.40;13.00;;;;;;;;;;5027432;28;20061;-68
2023/06/09 02:42:46;;;;;;;18.45;12.55;;;;;;;;;;5026532;28;20029;-68
2023/06/09 02:45:12;;;;;;;19.92;13.15;;;;;;;;;;5026716;28;20045;-69
2023/06/09 02:47:38;;;;;;;21.90;13.40;;;;;;;;;;5026235;28;20053;-69
2023/06/09 02:50:04;;;;;;;20.90;12.88;;;;;;;;;;5027280;28;20037;-68
2023/06/09 02:52:31;;;;;;;19.25;13.20;;;;;;;;;;5026990;28;20055;-69
2023/06/09 02:54:57;;;;;;;21.30;13.13;;;;;;;;;;5026951;28;20029;-69
2023/06/09 02:57:22;;;;;;;19.58;13.18;;;;;;;;;;5027599;28;20033;-68
2023/06/09 02:59:47;;;;;;;20.13;13.05;;;;;;;;;;5032808;28;20037;-68
2023/06/09 03:02:13;;;;;;;19.90;13.40;;;;;;;;;;5034297;28;20022;-69
2023/06/09 03:04:40;;;;;;;21.35;13.15;;;;;;;;;;5028836;28;20033;-67
2023/06/09 03:07:09;;;;;;;21.27;13.77;;;;;;;;;;5027243;28;20036;-68
2023/06/09 03:09:35;;;;;;;22.10;13.63;;;;;;;;;;5026900;28;20120;-68
2023/06/09 03:12:01;;;;;;;21.23;13.73;;;;;;;;;;5016912;28;20608;-68
2023/06/09 03:14:27;;;;;;;20.20;13.70;;;;;;;;;;5024464;28;20034;-69
2023/06/09 03:16:53;;;;;;;21.65;14.35;;;;;;;;;;5024988;28;20565;-68
2023/06/09 03:19:19;;;;;;;20.38;13.93;;;;;;;;;;5026345;28;20036;-69
2023/06/09 03:21:45;;;;;;;21.92;13.48;;;;;;;;;;5017202;28;20037;-68
2023/06/09 03:24:11;;;;;;;21.63;14.18;;;;;;;;;;5024785;28;20536;-68
2023/06/09 03:26:37;;;;;;;21.35;13.40;;;;;;;;;;5024800;28;20033;-69
2023/06/09 03:29:02;;;;;;;23.05;14.63;;;;;;;;;;5026197;28;20120;-68
2023/06/09 03:31:27;;;;;;;20.05;13.18;;;;;;;;;;5025440;28;20039;-68
2023/06/09 03:33:53;;;;;;;21.60;14.05;;;;;;;;;;5025850;28;20037;-68
2023/06/09 03:36:18;;;;;;;21.50;13.57;;;;;;;;;;5026014;28;20068;-68
2023/06/09 03:38:43;;;;;;;20.80;13.73;;;;;;;;;;5016276;28;20033;-69
2023/06/09 03:41:09;;;;;;;21.75;14.48;;;;;;;;;;5025697;28;20059;-69
2023/06/09 03:43:34;;;;;;;24.98;14.13;;;;;;;;;;5025993;28;20026;-68
2023/06/09 03:46:00;;;;;;;22.50;14.70;;;;;;;;;;5026051;28;20044;-68
2023/06/09 03:48:25;;;;;;;21.10;13.40;;;;;;;;;;5025334;28;20037;-68
2023/06/09 03:50:51;;;;;;;20.75;13.93;;;;;;;;;;5025647;28;20045;-68
2023/06/09 03:53:16;;;;;;;23.63;13.95;;;;;;;;;;5025049;28;20120;-68
2023/06/09 03:55:41;;;;;;;22.70;14.13;;;;;;;;;;5023960;28;20044;-68
2023/06/09 03:58:10;;;;;;;22.33;15.07;;;;;;;;;;5025969;28;20037;-68
2023/06/09 04:00:35;;;;;;;22.75;13.85;;;;;;;;;;5024510;28;20529;-69
2023/06/09 04:03:00;;;;;;;20.25;13.68;;;;;;;;;;5025426;28;20057;-69
2023/06/09 04:05:26;;;;;;;20.33;13.68;;;;;;;;;;5025029;28;20045;-68
2023/06/09 04:07:52;;;;;;;21.70;13.73;;;;;;;;;;5025787;28;20511;-68
2023/06/09 04:10:17;;;;;;;23.13;14.27;;;;;;;;;;5023425;28;20026;-68
2023/06/09 04:12:43;;;;;;;23.55;14.80;;;;;;;;;;5016170;28;20041;-68
2023/06/09 04:15:09;;;;;;;22.60;14.23;;;;;;;;;;5023754;28;20041;-68
2023/06/09 04:17:36;;;;;;;21.92;13.98;;;;;;;;;;5025347;28;20159;-67
2023/06/09 04:20:04;;;;;;;23.02;14.27;;;;;;;;;;5025035;28;20060;-68
2023/06/09 04:22:30;;;;;;;25.15;14.77;;;;;;;;;;5026054;28;20720;-68
2023/06/09 04:24:55;;;;;;;22.52;14.73;;;;;;;;;;5024898;28;20036;-69
2023/06/09 04:27:23;;;;;;;20.42;13.90;;;;;;;;;;5018323;28;20116;-68
2023/06/09 04:29:49;;;;;;;23.60;15.07;;;;;;;;;;5028549;28;20112;-68
2023/06/09 04:32:16;;;;;;;24.95;14.30;;;;;;;;;;5022137;28;20326;-68
2023/06/09 04:34:44;;;;;;;21.85;13.75;;;;;;;;;;5024832;28;20078;-68
2023/06/09 04:37:09;;;;;;;20.70;13.07;;;;;;;;;;5022775;28;20143;-68
2023/06/09 04:39:35;;;;;;;21.90;14.57;;;;;;;;;;5024531;28;20056;-68
2023/06/09 04:42:04;;;;;;;28.33;14.30;;;;;;;;;;5024002;28;20048;-68
2023/06/09 04:44:32;;;;;;;21.08;14.10;;;;;;;;;;5023326;28;20036;-68
2023/06/09 04:47:02;;;;;;;21.42;13.93;;;;;;;;;;5020023;28;20064;-68
2023/06/09 04:49:30;;;;;;;22.25;14.05;;;;;;;;;;5024062;28;20052;-68
2023/06/09 04:51:56;;;;;;;21.20;14.20;;;;;;;;;;5024563;28;20037;-68
2023/06/09 04:54:25;;;;;;;23.55;14.25;;;;;;;;;;5023038;28;20555;-68
2023/06/09 04:56:52;;;;;;;22.80;13.82;;;;;;;;;;5021502;28;20041;-68
2023/06/09 04:59:21;;;;;;;20.40;13.70;;;;;;;;;;5019953;28;20632;-68
2023/06/09 05:01:46;;;;;;;24.23;14.50;;;;;;;;;;5016174;28;20025;-68
2023/06/09 05:04:14;;;;;;;20.70;13.90;;;;;;;;;;5007257;28;20493;-68
2023/06/09 05:06:40;;;;;;;20.48;13.13;;;;;;;;;;5021069;28;20037;-68
2023/06/09 05:09:06;;;;;;;23.52;14.45;;;;;;;;;;4997729;28;20037;-69
2023/06/09 05:11:32;;;;;;;23.20;13.70;;;;;;;;;;5018541;28;20102;-68
2023/06/09 05:13:57;;;;;;;21.60;13.85;;;;;;;;;;5011415;28;20858;-68
2023/06/09 05:16:25;;;;;;;19.17;13.20;;;;;;;;;;5011685;28;20033;-68
2023/06/09 05:18:51;;;;;;;22.60;13.90;;;;;;;;;;5011914;28;20075;-68
2023/06/09 05:21:17;;;;;;;18.33;12.82;;;;;;;;;;5016121;28;20034;-68
2023/06/09 05:23:42;;;;;;;22.55;13.80;;;;;;;;;;5016249;28;20036;-68
2023/06/09 05:26:07;;;;;;;21.38;13.65;;;;;;;;;;5023801;28;20080;-68
2023/06/09 05:28:33;;;;;;;23.60;14.07;;;;;;;;;;5025097;28;20368;-68
2023/06/09 05:30:58;;;;;;;25.45;13.98;;;;;;;;;;5024555;28;20108;-68
2023/06/09 05:33:23;;;;;;;21.23;14.35;;;;;;;;;;5025395;28;20106;-68
2023/06/09 05:35:49;;;;;;;24.30;14.07;;;;;;;;;;5013690;28;20107;-68
2023/06/09 05:38:14;;;;;;;19.67;13.05;;;;;;;;;;5025351;28;20096;-68
2023/06/09 05:40:40;;;;;;;24.85;14.30;;;;;;;;;;5024331;28;20022;-68
2023/06/09 05:43:05;;;;;;;21.38;14.18;;;;;;;;;;5019445;28;20026;-68
2023/06/09 05:45:31;;;;;;;22.67;14.10;;;;;;;;;;5011227;28;20040;-68
2023/06/09 05:47:56;;;;;;;21.77;13.57;;;;;;;;;;5021449;28;20446;-68
2023/06/09 05:50:21;;;;;;;23.02;13.45;;;;;;;;;;5022853;28;20490;-68
2023/06/09 05:52:47;;;;;;;26.20;13.98;;;;;;;;;;5015884;28;20029;-68
2023/06/09 05:55:12;;;;;;;22.15;14.05;;;;;;;;;;5027750;28;20040;-68
2023/06/09 05:57:40;;;;;;;22.17;13.23;;;;;;;;;;5024720;28;20025;-69
2023/06/09 06:00:09;;;;;;;20.48;13.82;;;;;;;;;;5022009;28;20068;-69
2023/06/09 06:02:35;;;;;;;19.80;12.82;;;;;;;;;;5023542;28;20053;-68
2023/06/09 06:05:02;;;;;;;20.75;13.90;;;;;;;;;;5022467;28;20479;-69
2023/06/09 06:07:27;;;;;;;21.27;13.05;;;;;;;;;;5012013;28;20024;-69
2023/06/09 06:09:53;;;;;;;18.80;12.95;;;;;;;;;;5021807;28;20029;-69
2023/06/09 06:12:18;;;;;;;21.65;13.55;;;;;;;;;;5018451;28;20052;-69
2023/06/09 06:14:43;;;;;;;19.00;13.15;;;;;;;;;;5032313;28;20079;-69
2023/06/09 06:17:09;;;;;;;18.83;12.90;;;;;;;;;;5022445;28;20458;-68
2023/06/09 06:19:34;;;;;;;21.25;13.20;;;;;;;;;;5020332;28;20037;-69
2023/06/09 06:21:59;;;;;;;20.60;12.68;;;;;;;;;;5023483;28;20531;-69
2023/06/09 06:24:25;;;;;;;19.42;12.65;;;;;;;;;;5022574;28;20033;-69
2023/06/09 06:26:50;;;;;;;22.20;12.65;;;;;;;;;;5024118;28;20022;-69
2023/06/09 06:29:16;;;;;;;19.48;12.88;;;;;;;;;;5024253;28;20030;-69
2023/06/09 06:31:41;;;;;;;17.77;12.60;;;;;;;;;;5023905;28;20031;-68
2023/06/09 06:34:06;;;;;;;21.83;12.35;;;;;;;;;;5023833;28;20043;-69
2023/06/09 06:36:32;;;;;;;17.10;11.85;;;;;;;;;;5019453;28;20087;-69
2023/06/09 06:38:57;;;;;;;19.40;12.75;;;;;;;;;;5019980;28;20537;-69
2023/06/09 06:41:23;;;;;;;17.70;12.20;;;;;;;;;;5020070;28;20021;-69
2023/06/09 06:43:49;;;;;;;20.10;12.48;;;;;;;;;;5027655;28;20029;-69
2023/06/09 06:46:17;;;;;;;19.52;12.25;;;;;;;;;;5026390;28;20763;-69
2023/06/09 06:48:43;;;;;;;17.25;11.30;;;;;;;;;;5024095;28;20043;-69
2023/06/09 06:51:08;;;;;;;16.67;11.02;;;;;;;;;;5010329;28;20037;-69
2023/06/09 06:53:36;;;;;;;16.08;11.60;;;;;;;;;;5017588;28;20131;-69
2023/06/09 06:56:01;;;;;;;16.92;11.13;;;;;;;;;;5011618;28;20033;-69
2023/06/09 06:58:28;;;;;;;16.90;10.45;;;;;;;;;;5024583;28;20048;-69
2023/06/09 07:00:56;;;;;;;14.45;10.70;;;;;;;;;;5023301;28;20112;-69
2023/06/09 07:03:25;;;;;;;18.67;10.93;;;;;;;;;;5023063;28;20045;-69
2023/06/09 07:05:51;;;;;;;13.88;9.77;;;;;;;;;;5026094;28;20037;-69
2023/06/09 07:08:17;;;;;;;14.77;10.48;;;;;;;;;;5026669;28;20025;-69
2023/06/09 07:10:42;;;;;;;14.55;10.52;;;;;;;;;;5016045;28;20040;-69
2023/06/09 07:13:08;;;;;;;15.82;10.20;;;;;;;;;;5017855;28;20605;-69
2023/06/09 07:15:36;;;;;;;13.85;10.20;;;;;;;;;;5011961;28;20026;-69
2023/06/09 07:18:03;;;;;;;13.07;9.95;;;;;;;;;;5022278;28;20034;-69
2023/06/09 07:20:28;;;;;;;15.00;10.48;;;;;;;;;;5018881;28;20026;-69
2023/06/09 07:22:53;;;;;;;13.68;9.57;;;;;;;;;;5023363;28;20047;-69
2023/06/09 07:25:20;;;;;;;15.25;9.40;;;;;;;;;;5019306;28;20561;-69
2023/06/09 07:27:45;;;;;;;13.13;9.30;;;;;;;;;;5027019;28;20078;-69
2023/06/09 07:30:11;;;;;;;13.90;8.70;;;;;;;;;;5021091;28;20025;-69
2023/06/09 07:32:39;;;;;;;16.35;9.32;;;;;;;;;;5017011;28;20029;-69
2023/06/09 07:35:04;;;;;;;15.10;9.00;;;;;;;;;;5020528;28;20032;-69
2023/06/09 07:37:30;;;;;;;15.68;9.63;;;;;;;;;;5019380;28;20017;-70
2023/06/09 07:39:56;;;;;;;13.90;9.10;;;;;;;;;;5019881;28;20406;-69
2023/06/09 07:42:21;;;;;;;13.63;9.05;;;;;;;;;;5018176;28;20029;-69
2023/06/09 07:44:46;;;;;;;13.85;8.77;;;;;;;;;;5017893;28;20052;-69
2023/06/09 07:47:12;;;;;;;12.52;8.80;;;;;;;;;;5018061;28;20142;-69
2023/06/09 07:49:37;;;;;;;12.98;8.60;;;;;;;;;;5025697;28;20041;-69
2023/06/09 07:52:04;;;;;;;14.95;9.23;;;;;;;;;;5016709;28;20025;-69
2023/06/09 07:54:29;;;;;;;13.88;8.93;;;;;;;;;;5015375;28;20111;-69
2023/06/09 07:56:55;;;;;;;12.45;8.98;;;;;;;;;;5011467;28;21407;-69
2023/06/09 07:59:20;;;;;;;13.30;9.32;;;;;;;;;;5023139;28;20037;-69
2023/06/09 08:01:46;;;;;;;14.20;8.43;;;;;;;;;;5024934;28;20048;-69
2023/06/09 08:04:12;;;;;;;12.00;8.45;;;;;;;;;;5023913;28;20046;-69
2023/06/09 08:06:38;;;;;;;10.75;8.48;;;;;;;;;;5023401;28;20033;-69
2023/06/09 08:09:04;;;;;;;12.43;8.50;;;;;;;;;;5007268;28;20080;-69
2023/06/09 08:11:29;;;;;;;13.35;9.02;;;;;;;;;;5002652;28;20025;-69
2023/06/09 08:13:54;;;;;;;12.05;8.32;;;;;;;;;;5007031;28;20044;-70
2023/06/09 08:16:20;;;;;;;11.23;8.05;;;;;;;;;;5017163;28;20028;-69
2023/06/09 08:18:45;;;;;;;12.48;8.00;;;;;;;;;;5026197;28;20034;-69
2023/06/09 08:21:11;;;;;;;13.18;7.93;;;;;;;;;;5024309;28;20042;-69
2023/06/09 08:23:37;;;;;;;11.32;7.55;;;;;;;;;;5026651;28;20888;-69
2023/06/09 08:26:02;;;;;;;10.30;7.47;;;;;;;;;;5015248;28;20034;-69
2023/06/09 08:28:28;;;;;;;15.38;7.97;;;;;;;;;;5025403;28;20029;-69
2023/06/09 08:30:53;;;;;;;12.75;8.15;;;;;;;;;;5024142;28;20124;-69
2023/06/09 08:33:18;;;;;;;11.98;7.47;;;;;;;;;;5026089;28;20057;-70
2023/06/09 08:35:44;;;;;;;16.08;7.68;;;;;;;;;;5024999;28;20033;-70
2023/06/09 08:38:09;;;;;;;9.55;7.38;;;;;;;;;;5016326;28;20032;-69
2023/06/09 08:40:35;;;;;;;10.98;6.93;;;;;;;;;;5025315;28;20041;-69
2023/06/09 08:43:05;;;;;;;11.55;7.50;;;;;;;;;;5025900;28;20082;-69
2023/06/09 08:45:34;;;;;;;10.88;8.05;;;;;;;;;;5032560;28;20021;-70
2023/06/09 08:48:01;;;;;;;11.10;8.32;;;;;;;;;;5035907;28;20491;-69
2023/06/09 08:50:30;;;;;;;10.45;7.72;;;;;;;;;;5027290;28;20033;-70
2023/06/09 08:52:56;;;;;;;9.05;7.38;;;;;;;;;;5026798;28;20031;-70
2023/06/09 08:55:22;;;;;;;11.38;7.10;;;;;;;;;;5025779;28;20036;-70
2023/06/09 08:57:49;;;;;;;10.50;6.90;;;;;;;;;;5026264;28;20037;-70
2023/06/09 09:00:15;;;;;;;9.38;7.07;;;;;;;;;;5025498;28;20033;-70
2023/06/09 09:02:41;;;;;;;9.13;7.10;;;;;;;;;;5024586;28;20470;-70
2023/06/09 09:05:07;;;;;;;9.70;6.97;;;;;;;;;;5024399;28;20065;-70
2023/06/09 09:07:32;;;;;;;9.45;7.50;;;;;;;;;;5022950;28;20529;-70
2023/06/09 09:09:58;;;;;;;11.30;7.30;;;;;;;;;;5018893;28;20495;-70
2023/06/09 09:12:24;;;;;;;8.85;7.35;;;;;;;;;;5025424;28;20025;-70
2023/06/09 09:14:50;;;;;;;12.55;7.57;;;;;;;;;;5025818;28;20037;-70
2023/06/09 09:17:15;;;;;;;13.13;7.60;;;;;;;;;;5023873;28;20395;-70
2023/06/09 09:19:48;;;;;;;10.57;7.15;;;;;;;;;;5025839;28;20048;-69
2023/06/09 09:22:14;;;;;;;10.38;7.25;;;;;;;;;;5023632;28;20033;-70
2023/06/09 09:24:41;;;;;;;11.57;7.30;;;;;;;;;;5025560;28;20045;-70
2023/06/09 09:27:22;;;;;;;10.52;7.13;;;;;;;;;;5023259;28;20033;-70
2023/06/09 09:29:48;;;;;;;10.82;7.65;;;;;;;;;;5022777;28;20466;-69
2023/06/09 09:32:15;;;;;;;10.70;7.55;;;;;;;;;;5022310;28;20065;-69
2023/06/09 09:34:41;;;;;;;9.40;6.95;;;;;;;;;;5025013;28;20053;-70
2023/06/09 09:37:16;;;;;;;9.48;6.75;;;;;;;;;;5024791;28;20057;-70
2023/06/09 09:39:52;;;;;;;9.20;6.70;;;;;;;;;;5008111;28;20079;-70
2023/06/09 09:42:18;;;;;;;11.05;6.70;;;;;;;;;;5013587;28;20695;-71
2023/06/09 09:44:51;;;;;;;10.02;6.93;;;;;;;;;;5021351;28;20052;-70
2023/06/09 09:47:18;;;;;;;8.63;6.18;;;;;;;;;;5013194;28;20030;-70
2023/06/09 09:49:51;;;;;;;10.77;6.50;;;;;;;;;;5020112;28;20049;-70
2023/06/09 09:52:34;;;;;;;10.02;6.38;;;;;;;;;;5023277;28;20505;-70
2023/06/09 09:55:03;;;;;;;8.23;6.38;;;;;;;;;;5012890;28;20453;-70
2023/06/09 09:57:30;;;;;;;8.30;6.03;;;;;;;;;;5013748;28;20040;-70
2023/06/09 09:59:56;;;;;;;9.13;6.22;;;;;;;;;;5024640;28;20044;-69
2023/06/09 10:02:24;;;;;;;10.80;6.68;;;;;;;;;;5035938;28;20032;-69
2023/06/09 10:04:50;;;;;;;9.05;6.57;;;;;;;;;;5023638;28;20032;-70
2023/06/09 10:07:23;;;;;;;7.65;6.00;;;;;;;;;;5025869;28;20021;-69
2023/06/09 10:09:53;;;;;;;8.98;6.13;;;;;;;;;;5024839;28;20057;-70
2023/06/09 10:12:20;;;;;;;8.40;6.05;;;;;;;;;;5037079;28;20025;-70
2023/06/09 10:14:48;;;;;;;7.43;5.97;;;;;;;;;;5033695;28;20533;-70
2023/06/09 10:17:17;;;;;;;8.07;6.07;;;;;;;;;;5027427;28;20739;-70
2023/06/09 10:19:43;;;;;;;9.55;6.32;;;;;;;;;;5028193;28;20030;-70
2023/06/09 10:22:09;;;;;;;7.65;6.25;;;;;;;;;;5027526;28;20079;-70
2023/06/09 10:24:36;;;;;;;11.07;6.38;;;;;;;;;;5027575;28;20535;-70
2023/06/09 10:27:03;;;;;;;8.55;6.25;;;;;;;;;;5027197;28;20025;-70
2023/06/09 10:29:29;;;;;;;8.30;6.55;;;;;;;;;;5027423;28;20025;-70
2023/06/09 10:31:56;;;;;;;8.65;6.20;;;;;;;;;;5028649;28;20028;-70
2023/06/09 10:34:23;;;;;;;7.75;5.97;;;;;;;;;;5013639;28;20025;-70
2023/06/09 10:36:53;;;;;;;10.30;5.60;;;;;;;;;;5027096;28;20037;-70
2023/06/09 10:39:20;;;;;;;10.68;6.20;;;;;;;;;;5024971;28;20087;-70
2023/06/09 10:42:07;;;;;;;8.02;5.50;;;;;;;;;;5017940;28;20562;-70
2023/06/09 10:44:50;;;;;;;9.32;5.03;;;;;;;;;;5026941;28;20033;-70
2023/06/09 10:47:47;;;;;;;7.47;5.03;;;;;;;;;;5011621;28;20029;-70
2023/06/09 10:50:26;;;;;;;10.13;5.55;;;;;;;;;;5014516;28;20037;-70
2023/06/09 10:52:54;;;;;;;6.68;5.38;;;;;;;;;;5037109;28;20097;-70
2023/06/09 10:55:22;;;;;;;5.65;4.75;;;;;;;;;;5023900;28;21037;-70
2023/06/09 10:57:50;;;;;;;7.38;5.10;;;;;;;;;;5023778;28;20030;-70
2023/06/09 11:00:16;;;;;;;6.82;5.38;;;;;;;;;;5026706;28;20494;-70
2023/06/09 11:02:45;;;;;;;6.50;5.47;;;;;;;;;;5024969;28;20112;-70
2023/06/09 11:05:11;;;;;;;7.90;5.60;;;;;;;;;;5025297;28;20056;-69
2023/06/09 11:07:41;;;;;;;7.40;5.10;;;;;;;;;;5027206;28;20061;-70
2023/06/09 11:10:06;;;;;;;6.50;5.05;;;;;;;;;;5020799;28;20035;-70
2023/06/09 11:12:38;;;;;;;6.53;5.28;;;;;;;;;;5027127;28;20029;-70
2023/06/09 11:15:05;;;;;;;8.30;5.40;;;;;;;;;;5023943;28;20036;-70
2023/06/09 11:17:44;;;;;;;9.52;5.75;;;;;;;;;;5015224;28;20449;-70
2023/06/09 11:20:10;;;;;;;6.88;5.60;;;;;;;;;;5014495;28;20030;-70
2023/06/09 11:22:41;;;;;;;9.00;5.50;;;;;;;;;;5025315;28;20033;-70
2023/06/09 11:25:18;;;;;;;8.85;5.65;;;;;;;;;;5018160;28;20037;-70
2023/06/09 11:27:46;;;;;;;8.27;6.15;;;;;;;;;;5012792;28;20037;-70
2023/06/09 11:30:18;;;;;;;9.10;6.35;;;;;;;;;;5027759;28;20157;-70
2023/06/09 11:32:48;;;;;;;8.13;5.90;;;;;;;;;;5027118;28;20075;-70
2023/06/09 11:35:32;;;;;;;8.68;6.47;;;;;;;;;;5029200;28;20515;-70
2023/06/09 11:37:59;;;;;;;8.20;6.20;;;;;;;;;;5032574;28;20026;-70
2023/06/09 11:40:25;;;;;;;12.55;6.38;;;;;;;;;;5030981;28;20463;-70
2023/06/09 11:42:51;;;;;;;17.00;6.30;;;;;;;;;;5018276;28;20479;-70
2023/06/09 11:45:17;;;;;;;8.82;6.10;;;;;;;;;;5027170;28;20087;-70
2023/06/09 11:47:44;;;;;;;8.05;5.72;;;;;;;;;;5021937;28;20071;-70
2023/06/09 11:50:14;;;;;;;7.72;5.68;;;;;;;;;;5023678;28;20029;-71
2023/06/09 11:52:44;;;;;;;11.85;6.90;;;;;;;;;;5022326;28;20064;-70
2023/06/09 11:55:12;;;;;;;8.70;6.10;;;;;;;;;;5026422;28;20022;-70
2023/06/09 11:57:37;;;;;;;7.43;6.20;;;;;;;;;;5026336;28;20021;-69
2023/06/09 12:00:13;;;;;;;7.28;5.78;;;;;;;;;;5025731;28;20055;-70
2023/06/09 12:02:40;;;;;;;9.98;6.25;;;;;;;;;;5025856;28;20141;-70
2023/06/09 12:05:10;;;;;;;7.00;5.88;;;;;;;;;;5025122;28;20043;-70
2023/06/09 12:07:36;;;;;;;9.55;6.10;;;;;;;;;;5026324;28;20495;-69
2023/06/09 12:10:02;;;;;;;8.57;5.95;;;;;;;;;;5026258;28;20024;-69
2023/06/09 12:12:27;;;;;;;8.70;5.93;;;;;;;;;;5017081;28;20057;-70
2023/06/09 12:14:53;;;;;;;9.75;5.47;;;;;;;;;;5019598;28;20116;-70
2023/06/09 12:17:18;;;;;;;10.77;5.70;;;;;;;;;;5023452;28;20030;-70
2023/06/09 12:19:47;;;;;;;7.78;5.70;;;;;;;;;;5026270;28;20025;-69
2023/06/09 12:22:12;;;;;;;7.22;6.03;;;;;;;;;;5024490;28;20031;-69
2023/06/09 12:24:38;;;;;;;6.53;5.60;;;;;;;;;;5024927;28;20029;-69
2023/06/09 12:27:11;;;;;;;7.85;5.97;;;;;;;;;;5024092;28;20021;-69
2023/06/09 12:29:37;;;;;;;;;;;;;;;;;;5026249;28;20022;-70
2023/06/09 12:32:02;;;;;;;6.60;5.90;;;;;;;;;;5024134;28;20398;-69
2023/06/09 12:34:30;;;;;;;6.80;5.80;;;;;;;;;;5025784;28;20108;-70
2023/06/09 12:36:57;;;;;;;7.88;5.57;;;;;;;;;;5021374;28;20025;-70
2023/06/09 12:39:24;;;;;;;7.00;5.93;;;;;;;;;;5013937;28;20542;-69
2023/06/09 12:41:50;;;;;;;6.70;5.70;;;;;;;;;;5023958;28;20037;-69
2023/06/09 12:44:20;;;;;;;7.38;6.07;;;;;;;;;;5025114;28;20079;-70
2023/06/09 12:46:51;;;;;;;7.78;5.78;;;;;;;;;;5026132;28;20029;-70
2023/06/09 12:49:16;;;;;;;9.10;6.40;;;;;;;;;;5021925;28;20025;-69
2023/06/09 12:51:43;;;;;;;8.23;6.65;;;;;;;;;;5024060;28;20465;-70
2023/06/09 12:54:11;;;;;;;6.55;5.80;;;;;;;;;;5018868;28;20116;-70
2023/06/09 12:56:36;;;;;;;8.85;6.20;;;;;;;;;;5022451;28;20185;-69
2023/06/09 12:59:02;;;;;;;8.07;6.30;;;;;;;;;;5025964;28;20569;-69
2023/06/09 13:01:30;;;;;;;8.43;6.43;;;;;;;;;;5018576;28;20022;-70
2023/06/09 13:03:56;;;;;;;10.85;6.07;;;;;;;;;;5028231;28;20140;-70
2023/06/09 13:06:21;;;;;;;7.88;5.82;;;;;;;;;;5035411;28;20474;-69
2023/06/09 13:08:46;;;;;;;7.22;6.20;;;;;;;;;;5025661;28;20451;-70
2023/06/09 13:11:12;;;;;;;8.00;6.10;;;;;;;;;;5022298;28;20029;-69
2023/06/09 13:13:39;;;;;;;7.07;6.15;;;;;;;;;;5023271;28;20028;-69
2023/06/09 13:16:05;;;;;;;8.85;6.35;;;;;;;;;;5024579;28;20028;-69
2023/06/09 13:18:30;;;;;;;7.38;6.47;;;;;;;;;;5023660;28;20021;-69
2023/06/09 13:20:55;;;;;;;8.38;6.00;;;;;;;;;;5022650;28;20087;-69
2023/06/09 13:23:21;;;;;;;7.68;6.20;;;;;;;;;;5025145;28;20518;-69
2023/06/09 13:25:46;;;;;;;7.22;6.10;;;;;;;;;;5024141;28;20530;-69
2023/06/09 13:28:14;;;;;;;8.25;6.07;;;;;;;;;;5024534;28;20108;-69
2023/06/09 13:30:40;;;;;;;8.45;6.25;;;;;;;;;;5024689;28;20104;-69
2023/06/09 13:33:06;;;;;;;8.40;5.95;;;;;;;;;;5024448;28;20052;-69
2023/06/09 13:35:33;;;;;;;6.78;5.93;;;;;;;;;;5023115;28;20021;-69
2023/06/09 13:37:59;;;;;;;6.95;6.18;;;;;;;;;;5024397;28;20032;-69
2023/06/09 13:40:24;;;;;;;7.03;6.20;;;;;;;;;;5023924;28;20036;-69
2023/06/09 13:42:52;;;;;;;6.03;5.43;;;;;;;;;;5023226;28;20033;-69
2023/06/09 13:45:27;;;;;;;7.55;5.90;;;;;;;;;;5023540;28;20454;-69
2023/06/09 13:47:55;;;;;;;8.95;6.10;;;;;;;;;;5021690;28;20698;-69
2023/06/09 13:50:24;;;;;;;6.85;6.05;;;;;;;;;;5011333;28;20021;-69
2023/06/09 13:52:49;;;;;;;6.57;5.85;;;;;;;;;;5021113;28;20450;-69
2023/06/09 13:55:15;;;;;;;7.90;6.25;;;;;;;;;;5023407;28;20474;-69
2023/06/09 13:57:42;;;;;;;6.45;5.82;;;;;;;;;;5019078;28;20037;-69
2023/06/09 14:00:10;;;;;;;20.48;12.85;;;;;;;;;;5023869;28;20047;-69
2023/06/09 14:02:39;;;;;;;7.80;6.45;;;;;;;;;;5020859;28;20045;-69
2023/06/09 14:05:05;;;;;;;9.07;5.82;;;;;;;;;;5023379;28;20036;-69
2023/06/09 14:07:31;;;;;;;7.13;5.72;;;;;;;;;;5024489;28;20014;-69
2023/06/09 14:09:56;;;;;;;6.88;4.95;;;;;;;;;;5024777;28;20084;-69
2023/06/09 14:12:23;;;;;;;6.03;5.32;;;;;;;;;;5024331;28;20025;-69
2023/06/09 14:14:48;;;;;;;7.57;5.80;;;;;;;;;;5023586;28;20105;-69
2023/06/09 14:17:14;;;;;;;8.43;6.68;;;;;;;;;;5024139;28;20124;-69
2023/06/09 14:19:39;;;;;;;6.18;5.57;;;;;;;;;;5024344;28;20430;-69
2023/06/09 14:22:06;;;;;;;15.70;5.85;;;;;;;;;;5024414;28;20380;-69
2023/06/09 14:24:33;;;;;;;5.95;5.32;;;;;;;;;;5012385;28;20047;-69
2023/06/09 14:26:59;;;;;;;6.15;5.03;;;;;;;;;;5025019;28;20025;-69
2023/06/09 14:29:25;;;;;;;10.20;5.60;;;;;;;;;;5028925;28;20049;-69